Time;durP1;ratioP1;P1;durP2;ratioP2;P2;SDS_P1;SDS_P2;PMS_P1;PMS_P2;Temp;Humidity;BMP_temperature;BMP_pressure;BME280_temperature;BME280_humidity;BME280_pressure;Samples;Min_cycle;Max_cycle;Signal;HPM_P1;HPM_P2
2024/01/22 00:01:45;;;;;;;15.18;8.25;;;;;;;;;;5008379;28;20053;-65
2024/01/22 00:04:11;;;;;;;16.85;8.25;;;;;;;;;;5015114;28;20038;-64
2024/01/22 00:06:38;;;;;;;17.08;8.25;;;;;;;;;;5007530;28;20041;-65
2024/01/22 00:09:05;;;;;;;16.42;9.18;;;;;;;;;;5009645;28;20042;-65
2024/01/22 00:11:31;;;;;;;17.23;7.18;;;;;;;;;;5010869;28;20053;-64
2024/01/22 00:13:57;;;;;;;15.52;7.60;;;;;;;;;;5006935;28;20052;-64
2024/01/22 00:16:23;;;;;;;12.27;7.32;;;6.90;99.90;;;;;;5008581;28;20033;-65
2024/01/22 00:18:49;;;;;;;14.30;7.88;;;;;;;;;;5009698;28;20119;-65
2024/01/22 00:21:15;;;;;;;14.65;7.22;;;;;;;;;;5007217;28;20513;-65
2024/01/22 00:23:41;;;;;;;15.27;7.43;;;;;;;;;;5011991;28;20068;-64
2024/01/22 00:26:12;;;;;;;11.35;6.75;;;;;;;;;;5006115;28;20044;-64
2024/01/22 00:28:38;;;;;;;12.50;6.88;;;;;;;;;;4995107;28;20046;-65
2024/01/22 00:31:04;;;;;;;11.90;6.25;;;;;;;;;;5008229;28;20116;-65
2024/01/22 00:33:30;;;;;;;11.32;6.70;;;;;;;;;;5003742;28;20046;-64
2024/01/22 00:35:56;;;;;;;10.65;6.15;;;;;;;;;;5009912;28;20503;-65
2024/01/22 00:38:22;;;;;;;9.98;6.28;;;;;;;;;;5093805;23;20076;-61
2024/01/22 00:40:48;;;;;;;10.90;5.85;;;;;;;;;;5027914;28;20041;-61
2024/01/22 00:43:14;;;;;;;12.02;7.38;;;;;;;;;;5027505;28;20029;-61
2024/01/22 00:45:40;;;;;;;11.77;6.75;;;;;;;;;;5017821;28;20505;-62
2024/01/22 00:48:07;;;;;;;11.80;6.53;;;7.20;99.90;;;;;;5028991;28;20072;-61
2024/01/22 00:50:33;;;;;;;9.00;5.82;;;;;;;;;;5022097;28;20129;-61
2024/01/22 00:52:59;;;;;;;12.23;6.22;;;;;;;;;;5027909;28;20552;-61
2024/01/22 00:55:25;;;;;;;12.05;6.97;;;;;;;;;;5027552;28;20041;-61
2024/01/22 00:57:51;;;;;;;16.65;8.38;;;;;;;;;;5029436;28;20558;-61
2024/01/22 01:00:17;;;;;;;16.13;9.25;;;;;;;;;;5026879;28;20179;-60
2024/01/22 01:02:43;;;;;;;13.23;8.32;;;7.30;99.90;;;;;;5025429;28;20041;-60
2024/01/22 01:05:08;;;;;;;15.88;9.18;;;7.30;99.90;;;;;;5028103;28;20107;-59
2024/01/22 01:07:35;;;;;;;16.05;8.48;;;;;;;;;;5031600;28;20535;-59
2024/01/22 01:10:01;;;;;;;18.20;8.00;;;;;;;;;;5031223;28;20124;-60
2024/01/22 01:12:27;;;;;;;15.98;9.07;;;;;;;;;;5028594;28;20129;-60
2024/01/22 01:14:53;;;;;;;19.40;9.02;;;;;;;;;;5030740;28;20097;-59
2024/01/22 01:17:19;;;;;;;14.48;9.40;;;;;;;;;;5029873;28;20124;-60
2024/01/22 01:19:45;;;;;;;15.20;9.45;;;;;;;;;;5028962;28;20056;-59
2024/01/22 01:22:11;;;;;;;13.07;9.52;;;;;;;;;;5028234;28;20481;-60
2024/01/22 01:24:38;;;;;;;14.93;8.85;;;;;;;;;;5029612;28;20048;-60
2024/01/22 01:27:04;;;;;;;14.95;8.90;;;;;;;;;;5030060;28;20037;-60
2024/01/22 01:29:30;;;;;;;18.60;9.35;;;;;;;;;;5029721;28;20037;-59
2024/01/22 01:31:56;;;;;;;15.63;9.05;;;;;;;;;;5029059;28;20540;-60
2024/01/22 01:34:22;;;;;;;19.73;9.18;;;;;;;;;;5027954;28;20045;-60
2024/01/22 01:36:48;;;;;;;17.42;10.23;;;;;;;;;;5012337;28;20449;-60
2024/01/22 01:39:14;;;;;;;16.67;10.23;;;;;;;;;;5018656;28;20100;-60
2024/01/22 01:41:40;;;;;;;16.33;9.57;;;7.50;99.90;;;;;;5028390;28;20096;-60
2024/01/22 01:44:06;;;;;;;18.90;8.45;;;;;;;;;;5031269;28;20064;-59
2024/01/22 01:46:32;;;;;;;23.75;9.75;;;;;;;;;;5030183;28;20049;-61
2024/01/22 01:48:59;;;;;;;17.30;9.82;;;7.60;99.90;;;;;;5030141;28;20117;-60
2024/01/22 01:51:25;;;;;;;17.10;9.85;;;;;;;;;;5030178;28;20037;-60
2024/01/22 01:53:52;;;;;;;16.52;11.05;;;;;;;;;;5029605;28;20472;-59
2024/01/22 01:56:18;;;;;;;16.40;9.65;;;;;;;;;;5030987;28;20206;-60
2024/01/22 01:58:45;;;;;;;15.88;10.05;;;;;;;;;;5030129;28;20046;-60
2024/01/22 02:01:10;;;;;;;16.50;9.15;;;;;;;;;;5029529;28;20076;-60
2024/01/22 02:03:36;;;;;;;18.70;9.73;;;;;;;;;;5028249;28;20446;-60
2024/01/22 02:06:03;;;;;;;16.92;9.40;;;;;;;;;;5023706;28;20049;-60
2024/01/22 02:08:28;;;;;;;20.33;10.32;;;8.20;99.90;;;;;;5025469;28;20046;-60
2024/01/22 02:10:54;;;;;;;16.58;8.98;;;;;;;;;;5022475;28;20029;-60
2024/01/22 02:13:20;;;;;;;17.75;9.73;;;;;;;;;;5024602;28;20464;-59
2024/01/22 02:15:46;;;;;;;16.60;10.05;;;;;;;;;;5021814;28;20041;-59
2024/01/22 02:18:12;;;;;;;15.38;9.18;;;;;;;;;;5027120;28;20041;-60
2024/01/22 02:20:38;;;;;;;15.10;9.55;;;;;;;;;;5023794;28;20049;-61
2024/01/22 02:23:05;;;;;;;17.13;9.60;;;;;;;;;;5026126;28;20037;-61
2024/01/22 02:25:31;;;;;;;16.85;9.57;;;;;;;;;;5023895;28;20049;-60
2024/01/22 02:27:57;;;;;;;14.90;9.38;;;;;;;;;;5024285;28;20072;-61
2024/01/22 02:30:23;;;;;;;19.45;10.38;;;;;;;;;;5024719;28;20613;-61
2024/01/22 02:32:49;;;;;;;16.80;9.48;;;;;;;;;;5024184;28;20080;-60
2024/01/22 02:35:14;;;;;;;14.05;7.97;;;8.50;99.90;;;;;;5023113;28;20033;-61
2024/01/22 02:37:41;;;;;;;14.38;9.77;;;8.50;99.90;;;;;;5029781;28;20048;-61
2024/01/22 02:40:07;;;;;;;16.73;9.93;;;;;;;;;;5022336;28;20045;-61
2024/01/22 02:42:33;;;;;;;15.88;10.05;;;;;;;;;;5025316;28;20091;-62
2024/01/22 02:44:59;;;;;;;17.13;9.23;;;;;;;;;;5022685;28;20045;-61
2024/01/22 02:47:25;;;;;;;18.63;8.65;;;;;;;;;;5029866;28;20045;-60
2024/01/22 02:49:52;;;;;;;14.43;8.48;;;;;;;;;;5024455;28;20041;-61
2024/01/22 02:52:18;;;;;;;14.63;8.73;;;;;;;;;;5026976;28;20469;-61
2024/01/22 02:54:44;;;;;;;19.48;9.95;;;;;;;;;;5022739;28;20049;-61
2024/01/22 02:57:11;;;;;;;14.73;8.23;;;;;;;;;;5024706;28;20128;-61
2024/01/22 02:59:37;;;;;;;15.88;8.73;;;;;;;;;;5023166;28;20045;-61
2024/01/22 03:02:06;;;;;;;22.67;9.40;;;;;;;;;;5028602;28;20049;-61
2024/01/22 03:04:32;;;;;;;14.25;7.93;;;;;;;;;;5025716;28;20468;-61
2024/01/22 03:06:58;;;;;;;14.50;9.18;;;;;;;;;;5024649;28;20041;-61
2024/01/22 03:09:24;;;;;;;15.68;9.25;;;;;;;;;;5029152;28;20051;-61
2024/01/22 03:11:51;;;;;;;13.05;8.82;;;;;;;;;;5008155;28;20049;-61
2024/01/22 03:14:17;;;;;;;15.13;8.57;;;;;;;;;;5023443;28;20121;-60
2024/01/22 03:16:43;;;;;;;13.73;8.38;;;;;;;;;;5022162;28;20115;-60
2024/01/22 03:19:09;;;;;;;16.77;8.55;;;;;;;;;;5026444;28;20041;-60
2024/01/22 03:21:35;;;;;;;15.98;9.30;;;;;;;;;;5025714;28;20450;-61
2024/01/22 03:24:01;;;;;;;14.52;8.35;;;;;;;;;;5028109;28;20042;-59
2024/01/22 03:26:27;;;;;;;12.43;7.13;;;;;;;;;;5023771;28;20669;-59
2024/01/22 03:28:53;;;;;;;13.68;8.15;;;;;;;;;;5028334;28;20049;-60
2024/01/22 03:31:32;;;;;;;12.32;7.13;;;9.10;99.90;;;;;;5020472;28;20037;-59
2024/01/22 03:33:58;;;;;;;15.48;8.68;;;;;;;;;;5027111;28;20076;-61
2024/01/22 03:36:24;;;;;;;13.43;8.23;;;8.80;99.90;;;;;;5025987;28;20045;-60
2024/01/22 03:38:51;;;;;;;15.60;9.13;;;;;;;;;;5025027;28;20040;-60
2024/01/22 03:41:17;;;;;;;15.15;7.45;;;;;;;;;;5028752;28;20124;-60
2024/01/22 03:43:43;;;;;;;12.95;7.93;;;;;;;;;;5024659;28;20400;-60
2024/01/22 03:46:09;;;;;;;12.13;7.72;;;;;;;;;;5025549;28;20042;-60
2024/01/22 03:48:35;;;;;;;12.90;6.82;;;8.60;99.90;;;;;;5029488;28;20076;-61
2024/01/22 03:51:01;;;;;;;10.48;6.35;;;;;;;;;;5021619;28;20072;-61
2024/01/22 03:53:27;;;;;;;11.32;7.05;;;;;;;;;;5028499;28;20084;-61
2024/01/22 03:55:53;;;;;;;10.60;6.55;;;;;;;;;;5027265;28;20041;-61
2024/01/22 03:58:19;;;;;;;12.60;6.63;;;;;;;;;;5024397;28;20040;-61
2024/01/22 04:00:45;;;;;;;12.38;7.15;;;;;;;;;;5027364;28;20074;-61
2024/01/22 04:03:11;;;;;;;10.18;6.45;;;8.80;99.90;;;;;;5023896;28;20037;-61
2024/01/22 04:05:37;;;;;;;11.90;7.03;;;;;;;;;;5014865;28;20437;-61
2024/01/22 04:08:04;;;;;;;11.48;6.28;;;;;;;;;;5011242;28;20045;-61
2024/01/22 04:10:30;;;;;;;15.20;7.55;;;;;;;;;;5014016;28;20103;-61
2024/01/22 04:12:56;;;;;;;11.20;6.30;;;9.00;99.90;;;;;;5020354;28;20115;-61
2024/01/22 04:15:23;;;;;;;10.68;7.22;;;9.00;99.90;;;;;;5018247;28;20074;-61
2024/01/22 04:17:49;;;;;;;10.52;5.90;;;;;;;;;;5021332;28;20096;-61
2024/01/22 04:20:15;;;;;;;10.20;6.15;;;;;;;;;;5023942;28;20073;-61
2024/01/22 04:22:41;;;;;;;12.23;7.05;;;9.00;99.90;;;;;;5019661;28;20140;-61
2024/01/22 04:25:07;;;;;;;12.55;7.20;;;;;;;;;;5029746;28;20489;-61
2024/01/22 04:27:33;;;;;;;10.80;6.43;;;;;;;;;;5017000;28;20037;-62
2024/01/22 04:29:59;;;;;;;9.18;6.15;;;;;;;;;;5028630;28;20038;-61
2024/01/22 04:32:25;;;;;;;10.27;6.68;;;;;;;;;;5023673;28;20045;-61
2024/01/22 04:34:52;;;;;;;10.65;5.70;;;;;;;;;;5024801;28;20041;-61
2024/01/22 04:37:18;;;;;;;9.52;5.80;;;;;;;;;;5017723;28;20416;-61
2024/01/22 04:39:44;;;;;;;13.75;6.85;;;;;;;;;;5020470;28;20060;-60
2024/01/22 04:42:10;;;;;;;8.40;6.05;;;;;;;;;;5023523;28;20115;-61
2024/01/22 04:44:36;;;;;;;8.88;5.50;;;;;;;;;;5027997;28;20563;-61
2024/01/22 04:47:02;;;;;;;7.57;4.95;;;9.80;99.90;;;;;;5021946;28;20068;-61
2024/01/22 04:49:28;;;;;;;10.05;5.43;;;;;;;;;;5027875;28;20041;-61
2024/01/22 04:51:55;;;;;;;11.63;5.57;;;;;;;;;;5025522;28;20077;-61
2024/01/22 04:54:20;;;;;;;12.48;5.10;;;9.70;99.90;;;;;;5025165;28;20037;-61
2024/01/22 04:56:47;;;;;;;9.07;6.00;;;;;;;;;;5027331;28;20060;-61
2024/01/22 04:59:13;;;;;;;9.13;5.00;;;9.70;99.90;;;;;;5033044;28;20033;-60
2024/01/22 05:01:40;;;;;;;9.30;5.03;;;;;;;;;;5022052;28;20053;-59
2024/01/22 05:04:06;;;;;;;9.32;4.82;;;;;;;;;;5024165;28;20120;-60
2024/01/22 05:06:32;;;;;;;11.18;5.68;;;;;;;;;;5026398;28;20065;-60
2024/01/22 05:08:58;;;;;;;8.95;5.28;;;9.70;99.90;;;;;;5033045;28;20037;-60
2024/01/22 05:11:24;;;;;;;10.48;4.95;;;;;;;;;;5027560;28;20057;-59
2024/01/22 05:13:51;;;;;;;9.50;4.45;;;;;;;;;;5008214;28;20056;-60
2024/01/22 05:16:18;;;;;;;9.75;5.38;;;;;;;;;;5022220;28;20041;-60
2024/01/22 05:18:44;;;;;;;8.00;5.05;;;;;;;;;;5028125;28;20124;-61
2024/01/22 05:21:10;;;;;;;10.40;6.05;;;;;;;;;;5021488;28;20052;-59
2024/01/22 05:23:37;;;;;;;9.00;4.97;;;;;;;;;;5021852;28;20049;-60
2024/01/22 05:26:03;;;;;;;10.18;5.00;;;;;;;;;;5024132;28;20153;-59
2024/01/22 05:28:29;;;;;;;12.45;5.75;;;;;;;;;;5026559;28;20038;-60
2024/01/22 05:30:55;;;;;;;7.90;3.78;;;;;;;;;;5026577;28;20046;-60
2024/01/22 05:33:21;;;;;;;8.57;3.80;;;;;;;;;;5022806;28;20104;-60
2024/01/22 05:35:47;;;;;;;7.72;4.35;;;;;;;;;;5023070;28;20045;-60
2024/01/22 05:38:14;;;;;;;9.77;3.97;;;;;;;;;;5018958;28;20401;-60
2024/01/22 05:40:40;;;;;;;8.20;4.20;;;;;;;;;;5020439;28;20041;-59
2024/01/22 05:43:06;;;;;;;10.02;3.80;;;;;;;;;;5020077;28;20415;-58
2024/01/22 05:45:32;;;;;;;11.05;3.80;;;;;;;;;;5025381;28;20534;-60
2024/01/22 05:47:58;;;;;;;11.10;4.20;;;;;;;;;;5017912;28;20584;-59
2024/01/22 05:50:25;;;;;;;12.40;3.92;;;;;;;;;;5027768;28;20546;-60
2024/01/22 05:52:53;;;;;;;13.65;4.22;;;;;;;;;;5024925;28;20049;-60
2024/01/22 05:55:19;;;;;;;12.35;3.65;;;;;;;;;;5018992;28;20354;-60
2024/01/22 05:57:45;;;;;;;11.20;3.45;;;;;;;;;;5021703;28;20048;-60
2024/01/22 06:00:13;;;;;;;11.25;3.88;;;;;;;;;;5017723;28;20037;-60
2024/01/22 06:02:43;;;;;;;18.77;4.68;;;;;;;;;;5018709;28;20382;-60
2024/01/22 06:05:11;;;;;;;13.80;3.47;;;10.20;99.90;;;;;;5024395;28;20041;-59
2024/01/22 06:07:37;;;;;;;13.60;4.43;;;10.30;99.90;;;;;;5017051;28;20060;-59
2024/01/22 06:10:05;;;;;;;16.98;4.55;;;;;;;;;;5022852;28;20041;-60
2024/01/22 06:12:31;;;;;;;21.40;4.80;;;;;;;;;;5024499;28;21195;-60
2024/01/22 06:14:57;;;;;;;22.30;4.20;;;;;;;;;;5029724;28;20041;-60
2024/01/22 06:17:24;;;;;;;22.85;7.18;;;;;;;;;;5026080;28;20133;-60
2024/01/22 06:19:50;;;;;;;20.98;4.97;;;;;;;;;;5021503;28;20046;-60
2024/01/22 06:22:17;;;;;;;18.33;4.93;;;;;;;;;;5014937;28;20429;-61
2024/01/22 06:24:44;;;;;;;22.35;4.93;;;9.60;99.90;;;;;;5027883;28;20049;-61
2024/01/22 06:27:10;;;;;;;23.23;5.75;;;;;;;;;;5026740;28;20049;-61
2024/01/22 06:29:36;;;;;;;22.00;5.50;;;;;;;;;;5032607;28;20040;-61
2024/01/22 06:32:03;;;;;;;25.83;5.57;;;;;;;;;;5029705;28;20037;-61
2024/01/22 06:34:28;;;;;;;26.88;6.38;;;10.10;99.90;;;;;;5026874;28;20038;-60
2024/01/22 06:36:54;;;;;;;27.27;5.05;;;10.10;99.90;;;;;;5025777;28;20060;-60
2024/01/22 06:39:20;;;;;;;21.67;4.85;;;;;;;;;;5025219;28;20441;-61
2024/01/22 06:41:46;;;;;;;35.17;5.90;;;;;;;;;;5027874;28;20038;-60
2024/01/22 06:44:12;;;;;;;25.02;6.45;;;;;;;;;;5025143;28;20049;-60
2024/01/22 06:46:38;;;;;;;29.98;5.63;;;;;;;;;;5025480;28;20520;-61
2024/01/22 06:49:04;;;;;;;29.60;7.35;;;9.90;99.90;;;;;;5025238;28;20040;-61
2024/01/22 06:51:30;;;;;;;23.85;6.80;;;;;;;;;;5028506;28;20069;-61
2024/01/22 06:53:56;;;;;;;26.42;6.97;;;;;;;;;;5029108;28;20077;-61
2024/01/22 06:56:22;;;;;;;26.10;5.97;;;;;;;;;;5022287;28;20048;-60
2024/01/22 06:58:48;;;;;;;25.88;6.15;;;10.10;99.90;;;;;;5028606;28;20041;-61
2024/01/22 07:01:14;;;;;;;33.78;8.32;;;;;;;;;;5026244;28;20452;-61
2024/01/22 07:03:41;;;;;;;33.10;8.85;;;;;;;;;;5024755;28;20453;-60
2024/01/22 07:06:07;;;;;;;36.78;7.90;;;;;;;;;;5024348;28;20501;-60
2024/01/22 07:08:33;;;;;;;32.83;6.70;;;;;;;;;;5034979;28;20035;-61
2024/01/22 07:10:59;;;;;;;35.25;8.32;;;;;;;;;;5021317;28;20124;-61
2024/01/22 07:13:25;;;;;;;31.00;8.48;;;;;;;;;;5030955;28;20080;-59
2024/01/22 07:15:51;;;;;;;35.25;9.52;;;;;;;;;;5022209;28;20290;-60
2024/01/22 07:18:17;;;;;;;38.88;9.23;;;;;;;;;;5027417;28;20077;-61
2024/01/22 07:20:43;;;;;;;39.67;8.15;;;;;;;;;;5022862;28;20460;-59
2024/01/22 07:23:09;;;;;;;40.53;10.05;;;9.90;99.90;;;;;;5030462;28;21417;-61
2024/01/22 07:25:38;;;;;;;40.03;8.35;;;;;;;;;;5021890;28;20038;-61
2024/01/22 07:28:04;;;;;;;48.42;9.18;;;;;;;;;;5026759;28;20046;-61
2024/01/22 07:30:30;;;;;;;41.22;9.23;;;;;;;;;;5025223;28;20367;-60
2024/01/22 07:32:57;;;;;;;31.50;8.43;;;;;;;;;;5028515;28;20444;-60
2024/01/22 07:35:24;;;;;;;29.65;6.45;;;;;;;;;;5020359;28;20424;-60
2024/01/22 07:37:50;;;;;;;26.65;6.38;;;;;;;;;;5023594;28;20041;-60
2024/01/22 07:40:18;;;;;;;27.75;6.70;;;;;;;;;;5022104;28;20051;-61
2024/01/22 07:42:44;;;;;;;25.40;6.28;;;;;;;;;;5022320;28;20037;-61
2024/01/22 07:45:11;;;;;;;34.00;7.22;;;;;;;;;;5028187;28;20053;-60
2024/01/22 07:47:38;;;;;;;28.77;7.00;;;;;;;;;;5026168;28;20091;-60
2024/01/22 07:50:10;;;;;;;33.17;6.22;;;;;;;;;;5022077;28;20513;-59
2024/01/22 07:52:37;;;;;;;31.15;4.78;;;;;;;;;;5025216;28;20432;-60
2024/01/22 07:55:03;;;;;;;18.80;5.53;;;;;;;;;;5022365;28;20049;-61
2024/01/22 07:57:29;;;;;;;25.67;5.25;;;;;;;;;;5004847;28;20033;-60
2024/01/22 07:59:55;;;;;;;26.27;4.97;;;9.40;99.90;;;;;;5026566;28;20408;-60
2024/01/22 08:02:21;;;;;;;26.48;5.13;;;;;;;;;;5027226;28;20041;-60
2024/01/22 08:04:47;;;;;;;31.08;6.55;;;;;;;;;;5027167;28;20072;-60
2024/01/22 08:07:13;;;;;;;29.13;6.03;;;;;;;;;;5025136;28;20065;-61
2024/01/22 08:09:40;;;;;;;34.38;8.32;;;;;;;;;;5002489;28;20030;-59
2024/01/22 08:12:06;;;;;;;34.35;7.15;;;;;;;;;;5021007;28;20093;-59
2024/01/22 08:14:33;;;;;;;24.13;5.47;;;;;;;;;;5019731;28;20034;-60
2024/01/22 08:16:59;;;;;;;32.45;6.93;;;;;;;;;;5022502;28;20091;-60
2024/01/22 08:19:26;;;;;;;33.10;7.07;;;;;;;;;;5023650;28;20458;-59
2024/01/22 08:21:53;;;;;;;34.30;7.55;;;;;;;;;;5021005;28;20060;-60
2024/01/22 08:24:19;;;;;;;35.97;9.10;;;;;;;;;;5023723;28;20484;-60
2024/01/22 08:26:46;;;;;;;28.52;6.03;;;;;;;;;;5028239;28;20038;-60
2024/01/22 08:29:11;;;;;;;28.88;5.97;;;;;;;;;;5022535;28;20064;-60
2024/01/22 08:31:40;;;;;;;52.15;11.00;;;8.50;99.90;;;;;;5025386;28;20038;-60
2024/01/22 08:34:06;;;;;;;49.47;9.23;;;8.90;99.90;;;;;;5022481;28;20037;-61
2024/01/22 08:36:32;;;;;;;37.80;10.55;;;;;;;;;;5023348;28;20560;-59
2024/01/22 08:38:58;;;;;;;40.95;10.52;;;;;;;;;;5025894;28;20040;-60
2024/01/22 08:41:27;;;;;;;50.13;11.15;;;;;;;;;;5022392;28;20037;-60
2024/01/22 08:43:53;;;;;;;54.53;12.30;;;;;;;;;;5011359;28;20060;-60
2024/01/22 08:46:19;;;;;;;53.47;13.45;;;8.80;99.90;;;;;;5022649;28;20042;-61
2024/01/22 08:48:45;;;;;;;47.83;11.35;;;;;;;;;;5022738;28;20212;-60
2024/01/22 08:51:11;;;;;;;64.97;12.90;;;;;;;;;;5028029;28;20440;-61
2024/01/22 08:53:37;;;;;;;51.95;12.10;;;;;;;;;;5025316;28;20126;-60
2024/01/22 08:56:03;;;;;;;57.20;14.50;;;;;;;;;;5022114;28;20104;-60
2024/01/22 08:58:29;;;;;;;55.22;12.07;;;;;;;;;;5020639;28;20425;-60
2024/01/22 09:00:55;;;;;;;59.03;13.10;;;;;;;;;;5006633;28;20037;-60
2024/01/22 09:03:24;;;;;;;55.50;12.43;;;;;;;;;;5021529;28;20512;-60
2024/01/22 09:05:50;;;;;;;47.55;11.02;;;;;;;;;;5026383;28;20046;-61
2024/01/22 09:08:16;;;;;;;48.35;10.95;;;;;;;;;;5027180;28;20030;-61
2024/01/22 09:10:42;;;;;;;48.42;11.05;;;;;;;;;;5025367;28;20088;-60
2024/01/22 09:13:09;;;;;;;54.25;13.43;;;;;;;;;;5021243;28;20092;-61
2024/01/22 09:15:35;;;;;;;46.58;9.95;;;8.70;99.90;;;;;;5024998;28;20048;-61
2024/01/22 09:18:01;;;;;;;45.50;9.85;;;8.90;99.90;;;;;;5026779;28;20132;-61
2024/01/22 09:20:27;;;;;;;46.38;9.32;;;;;;;;;;5025921;28;20044;-61
2024/01/22 09:22:53;;;;;;;41.30;10.70;;;;;;;;;;5024076;28;20041;-60
2024/01/22 09:25:20;;;;;;;51.75;10.38;;;;;;;;;;5027552;28;20049;-60
2024/01/22 09:27:49;;;;;;;51.25;10.15;;;9.30;99.90;;;;;;5029921;28;20062;-60
2024/01/22 09:30:18;;;;;;;49.80;11.13;;;;;;;;;;5028751;28;20452;-60
2024/01/22 09:32:44;;;;;;;44.63;11.75;;;;;;;;;;5030941;28;20358;-60
2024/01/22 09:35:10;;;;;;;44.50;10.38;;;8.90;99.90;;;;;;5030533;28;20040;-61
2024/01/22 09:37:36;;;;;;;35.08;8.23;;;;;;;;;;5028279;28;20385;-60
2024/01/22 09:40:03;;;;;;;48.25;8.32;;;;;;;;;;5009444;28;20051;-60
2024/01/22 09:42:29;;;;;;;47.08;9.93;;;8.90;99.90;;;;;;5026997;28;20108;-60
2024/01/22 09:44:56;;;;;;;43.10;9.85;;;;;;;;;;5013642;28;20520;-60
2024/01/22 09:47:21;;;;;;;31.20;9.07;;;8.80;99.90;;;;;;5028068;28;20040;-60
2024/01/22 09:49:47;;;;;;;33.17;9.15;;;;;;;;;;5022337;28;20030;-61
2024/01/22 09:52:15;;;;;;;34.92;6.95;;;;;;;;;;5031093;28;20045;-60
2024/01/22 09:54:42;;;;;;;32.15;8.02;;;;;;;;;;5027404;28;20045;-61
2024/01/22 09:57:08;;;;;;;37.35;8.45;;;;;;;;;;5031558;28;20037;-61
2024/01/22 09:59:34;;;;;;;24.05;7.28;;;;;;;;;;5024247;28;20047;-60
2024/01/22 10:02:02;;;;;;;28.10;7.22;;;8.80;99.90;;;;;;5021364;28;20088;-61
2024/01/22 10:04:28;;;;;;;31.77;8.07;;;;;;;;;;5030965;28;20041;-61
2024/01/22 10:06:54;;;;;;;37.08;8.18;;;;;;;;;;5025527;28;20914;-61
2024/01/22 10:09:22;;;;;;;31.83;5.45;;;8.50;99.90;;;;;;5029417;28;20046;-61
2024/01/22 10:11:48;;;;;;;25.50;6.55;;;;;;;;;;5026788;28;20046;-60
2024/01/22 10:14:14;;;;;;;22.73;6.32;;;8.30;99.90;;;;;;5029702;28;20103;-60
2024/01/22 10:16:39;;;;;;;20.95;5.95;;;8.30;99.90;;;;;;5028330;28;20044;-60
2024/01/22 10:19:07;;;;;;;29.45;6.00;;;;;;;;;;5028820;28;20428;-60
2024/01/22 10:21:42;;;;;;;23.55;4.78;;;;;;;;;;5028141;28;20056;-60
2024/01/22 10:24:09;;;;;;;20.95;4.70;;;;;;;;;;5025519;28;20049;-60
2024/01/22 10:26:35;;;;;;;25.55;5.18;;;7.80;99.90;;;;;;5026753;28;20084;-61
2024/01/22 10:29:14;;;;;;;27.20;5.80;;;;;;;;;;5026170;28;20037;-61
2024/01/22 10:31:57;;;;;;;26.00;7.18;;;;;;;;;;5027805;28;20422;-61
2024/01/22 10:34:28;;;;;;;27.02;6.43;;;8.70;99.90;;;;;;5025774;28;20045;-61
2024/01/22 10:37:10;;;;;;;32.97;6.60;;;;;;;;;;5027682;28;20037;-61
2024/01/22 10:39:37;;;;;;;21.95;6.00;;;;;;;;;;5010949;28;20496;-60
2024/01/22 10:42:21;;;;;;;36.00;8.38;;;;;;;;;;5027667;28;20132;-61
2024/01/22 10:44:50;;;;;;;37.22;6.45;;;;;;;;;;5027737;28;20042;-61
2024/01/22 10:47:16;;;;;;;34.70;6.65;;;;;;;;;;5026014;28;20038;-61
2024/01/22 10:49:43;;;;;;;28.95;5.82;;;;;;;;;;5027913;28;20042;-61
2024/01/22 10:52:09;;;;;;;24.73;6.43;;;;;;;;;;5026925;28;20074;-61
2024/01/22 10:54:36;;;;;;;24.80;6.03;;;;;;;;;;5013379;28;20069;-60
2024/01/22 10:57:03;;;;;;;26.13;6.13;;;;;;;;;;5031027;28;20316;-61
2024/01/22 10:59:30;;;;;;;22.83;4.75;;;;;;;;;;5030274;28;20064;-60
2024/01/22 11:01:57;;;;;;;28.45;5.43;;;;;;;;;;5028442;28;20063;-61
2024/01/22 11:04:27;;;;;;;22.15;4.90;;;;;;;;;;5027916;28;20034;-59
2024/01/22 11:06:57;;;;;;;21.67;6.60;;;;;;;;;;5028372;28;20033;-60
2024/01/22 11:09:23;;;;;;;23.70;5.20;;;;;;;;;;5009595;28;20037;-61
2024/01/22 11:11:51;;;;;;;25.35;5.47;;;;;;;;;;5029605;28;20037;-61
2024/01/22 11:14:17;;;;;;;31.70;6.13;;;;;;;;;;5029216;28;20052;-61
2024/01/22 11:16:43;;;;;;;24.10;4.95;;;;;;;;;;5028100;28;20056;-61
2024/01/22 11:19:20;;;;;;;28.55;5.70;;;;;;;;;;5024119;28;20033;-60
2024/01/22 11:21:46;;;;;;;25.25;5.22;;;;;;;;;;5025938;28;20325;-61
2024/01/22 11:24:16;;;;;;;24.20;5.68;;;;;;;;;;5028061;28;20079;-60
2024/01/22 11:26:46;;;;;;;25.35;6.93;;;;;;;;;;5028512;28;20045;-61
2024/01/22 11:29:16;;;;;;;24.55;4.97;;;;;;;;;;5027910;28;20048;-60
2024/01/22 11:31:43;;;;;;;21.85;5.70;;;;;;;;;;5025535;28;20100;-61
2024/01/22 11:34:11;;;;;;;23.83;6.30;;;9.00;99.90;;;;;;5027323;28;20041;-60
2024/01/22 11:37:03;;;;;;;26.90;5.32;;;;;;;;;;5011197;28;20045;-61
2024/01/22 11:39:46;;;;;;;21.85;4.55;;;8.60;99.90;;;;;;5024524;28;20522;-61
2024/01/22 11:42:23;;;;;;;24.67;4.95;;;8.60;99.90;;;;;;5029483;28;20532;-61
2024/01/22 11:44:50;;;;;;;20.75;5.10;;;;;;;;;;5027920;28;20085;-60
2024/01/22 11:47:16;;;;;;;22.27;5.03;;;;;;;;;;5029347;28;20037;-60
2024/01/22 11:49:42;;;;;;;20.52;4.43;;;9.00;99.90;;;;;;5026727;28;20535;-60
2024/01/22 11:52:16;;;;;;;22.25;5.18;;;;;;;;;;5029742;28;20034;-60
2024/01/22 11:55:02;;;;;;;23.88;4.75;;;9.10;99.90;;;;;;5028080;28;20496;-60
2024/01/22 11:57:29;;;;;;;17.08;4.55;;;;;;;;;;5025678;28;20396;-60
2024/01/22 11:59:58;;;;;;;17.35;4.13;;;;;;;;;;5027601;28;20041;-60
2024/01/22 12:02:24;;;;;;;24.40;7.28;;;;;;;;;;5028648;28;20448;-60
2024/01/22 12:04:59;;;;;;;30.70;6.78;;;;;;;;;;5009743;28;20531;-59
2024/01/22 12:07:31;;;;;;;19.65;5.68;;;;;;;;;;5028826;28;20560;-60
2024/01/22 12:09:57;;;;;;;20.48;5.25;;;;;;;;;;5026754;28;20249;-60
2024/01/22 12:12:23;;;;;;;18.90;3.90;;;10.20;99.90;;;;;;5028335;28;20556;-59
2024/01/22 12:15:07;;;;;;;22.67;5.05;;;;;;;;;;5027628;28;20043;-60
2024/01/22 12:17:32;;;;;;;22.00;5.22;;;10.90;99.90;;;;;;5028059;28;20045;-60
2024/01/22 12:19:58;;;;;;;30.42;5.22;;;11.00;99.90;;;;;;5028368;28;20527;-60
2024/01/22 12:22:24;;;;;;;15.93;4.55;;;;;;;;;;5028214;28;20047;-60
2024/01/22 12:25:07;;;;;;;20.25;4.57;;;;;;;;;;5027571;28;20049;-60
2024/01/22 12:27:33;;;;;;;20.83;4.80;;;11.80;99.90;;;;;;5027943;28;20069;-60
2024/01/22 12:30:00;;;;;;;21.90;5.90;;;;;;;;;;5028246;28;20080;-60
2024/01/22 12:32:26;;;;;;;24.67;5.90;;;;;;;;;;5028318;28;20413;-60
2024/01/22 12:34:59;;;;;;;20.00;4.50;;;;;;;;;;5026841;28;20125;-60
2024/01/22 12:37:28;;;;;;;17.42;4.18;;;12.60;99.90;;;;;;5028182;28;20060;-59
2024/01/22 12:40:14;;;;;;;20.30;4.90;;;;;;;;;;5028063;28;20493;-60
2024/01/22 12:42:40;;;;;;;15.75;4.55;;;;;;;;;;5009697;28;20143;-60
2024/01/22 12:45:10;;;;;;;18.10;4.38;;;12.80;99.90;;;;;;5028665;28;20041;-60
2024/01/22 12:47:36;;;;;;;20.50;5.28;;;;;;;;;;5027619;28;20055;-60
2024/01/22 12:50:02;;;;;;;17.90;4.88;;;;;;;;;;5027329;28;20117;-60
2024/01/22 12:52:28;;;;;;;21.23;5.03;;;;;;;;;;5027215;28;20116;-60
2024/01/22 12:54:54;;;;;;;20.70;5.88;;;;;;;;;;5026947;28;20049;-59
2024/01/22 12:57:20;;;;;;;28.90;5.97;;;;;;;;;;5028295;28;20041;-60
2024/01/22 12:59:49;;;;;;;21.17;4.95;;;13.80;99.90;;;;;;5027486;28;20413;-60
2024/01/22 13:02:15;;;;;;;16.33;4.25;;;;;;;;;;5026913;28;20532;-60
2024/01/22 13:04:44;;;;;;;18.92;5.32;;;;;;;;;;5008826;28;20509;-60
2024/01/22 13:07:11;;;;;;;22.25;6.25;;;;;;;;;;5022386;28;20121;-60
2024/01/22 13:09:37;;;;;;;23.98;6.55;;;;;;;;;;5020760;28;20034;-60
2024/01/22 13:12:04;;;;;;;18.02;5.05;;;13.20;99.90;;;;;;5025463;28;20038;-60
2024/01/22 13:14:30;;;;;;;21.70;5.47;;;;;;;;;;5028481;28;20037;-60
2024/01/22 13:16:58;;;;;;;17.98;5.03;;;;;;;;;;5026071;28;20133;-60
2024/01/22 13:19:25;;;;;;;20.08;4.70;;;;;;;;;;5026998;28;20076;-60
2024/01/22 13:21:51;;;;;;;18.13;5.55;;;;;;;;;;5023366;28;20049;-59
2024/01/22 13:24:17;;;;;;;20.92;4.93;;;13.30;99.90;;;;;;5027965;28;20034;-60
2024/01/22 13:26:43;;;;;;;21.52;5.10;;;;;;;;;;5026095;28;20069;-60
2024/01/22 13:29:09;;;;;;;18.98;4.70;;;;;;;;;;5028841;28;20374;-60
2024/01/22 13:31:34;;;;;;;22.35;5.20;;;13.70;99.90;;;;;;5027950;28;20492;-60
2024/01/22 13:34:00;;;;;;;18.50;5.45;;;;;;;;;;5027074;28;20096;-60
2024/01/22 13:36:26;;;;;;;23.23;5.10;;;;;;;;;;5022206;28;20034;-60
2024/01/22 13:38:52;;;;;;;23.55;6.82;;;;;;;;;;5017216;28;20500;-60
2024/01/22 13:41:20;;;;;;;19.65;5.40;;;;;;;;;;5027338;28;20505;-60
2024/01/22 13:43:46;;;;;;;22.52;6.07;;;;;;;;;;5026406;28;20175;-60
2024/01/22 13:46:12;;;;;;;18.55;5.00;;;;;;;;;;5027999;28;20041;-60
2024/01/22 13:48:39;;;;;;;19.30;5.30;;;;;;;;;;5026791;28;20053;-61
2024/01/22 13:51:05;;;;;;;26.10;5.93;;;13.50;99.90;;;;;;5026264;28;20041;-60
2024/01/22 13:53:31;;;;;;;28.48;5.93;;;;;;;;;;5027765;28;20141;-60
2024/01/22 13:55:57;;;;;;;24.63;5.45;;;;;;;;;;5026051;28;20210;-61
2024/01/22 13:58:23;;;;;;;21.23;5.00;;;;;;;;;;5027506;28;20137;-60
2024/01/22 14:00:49;;;;;;;24.45;5.55;;;12.30;99.90;;;;;;5019289;28;20518;-60
2024/01/22 14:03:15;;;;;;;24.13;6.25;;;12.20;99.90;;;;;;5028685;28;20033;-60
2024/01/22 14:05:42;;;;;;;18.25;4.63;;;;;;;;;;5027358;28;20064;-60
2024/01/22 14:08:08;;;;;;;23.05;6.40;;;;;;;;;;5028328;28;20037;-60